sensor_id;sensor_type;location;lat;lon;timestamp;P1;durP1;ratioP1;P2;durP2;ratioP2
45344;SDS011;31078;48.304;11.896;2022-11-04T16:45:09;3.97;;;2.22;;
45344;SDS011;31078;48.304;11.896;2022-11-04T16:47:45;3.40;;;2.10;;
45344;SDS011;31078;48.304;11.896;2022-11-04T16:50:13;17.95;;;8.60;;
45344;SDS011;31078;48.304;11.896;2022-11-04T16:52:41;9.07;;;4.63;;
45344;SDS011;31078;48.304;11.896;2022-11-04T16:55:09;6.40;;;3.30;;
45344;SDS011;31078;48.304;11.896;2022-11-04T16:57:36;5.25;;;3.80;;
45344;SDS011;31078;48.304;11.896;2022-11-04T17:00:04;9.00;;;5.05;;
45344;SDS011;31078;48.304;11.896;2022-11-04T17:02:34;8.73;;;5.55;;
45344;SDS011;31078;48.304;11.896;2022-11-04T17:05:02;9.88;;;5.28;;
45344;SDS011;31078;48.304;11.896;2022-11-04T17:07:29;6.53;;;3.95;;
45344;SDS011;31078;48.304;11.896;2022-11-04T17:09:56;6.40;;;3.72;;
45344;SDS011;31078;48.304;11.896;2022-11-04T17:12:23;4.43;;;2.75;;
45344;SDS011;31078;48.304;11.896;2022-11-04T17:14:49;5.95;;;2.95;;
45344;SDS011;31078;48.304;11.896;2022-11-04T17:17:16;4.53;;;2.63;;
45344;SDS011;31078;48.304;11.896;2022-11-04T17:19:44;6.40;;;3.13;;
45344;SDS011;31078;48.304;11.896;2022-11-04T17:22:10;4.43;;;2.80;;
45344;SDS011;31078;48.304;11.896;2022-11-04T17:24:37;5.95;;;3.40;;
45344;SDS011;31078;48.304;11.896;2022-11-04T17:27:03;4.95;;;2.80;;
45344;SDS011;31078;48.304;11.896;2022-11-04T17:29:30;4.22;;;2.30;;
45344;SDS011;31078;48.304;11.896;2022-11-04T17:31:57;4.07;;;2.40;;
45344;SDS011;31078;48.304;11.896;2022-11-04T17:34:23;5.80;;;2.33;;
45344;SDS011;31078;48.304;11.896;2022-11-04T17:36:52;3.03;;;1.92;;
45344;SDS011;31078;48.304;11.896;2022-11-04T17:39:18;4.25;;;2.40;;
45344;SDS011;31078;48.304;11.896;2022-11-04T17:41:45;3.50;;;2.25;;
45344;SDS011;31078;48.304;11.896;2022-11-04T17:44:29;3.70;;;2.30;;
45344;SDS011;31078;48.304;11.896;2022-11-04T17:46:55;3.35;;;2.33;;
45344;SDS011;31078;48.304;11.896;2022-11-04T17:49:24;3.50;;;2.20;;
45344;SDS011;31078;48.304;11.896;2022-11-04T17:51:53;4.93;;;2.80;;
45344;SDS011;31078;48.304;11.896;2022-11-04T17:54:21;3.78;;;2.30;;
45344;SDS011;31078;48.304;11.896;2022-11-04T17:56:49;5.72;;;2.58;;
45344;SDS011;31078;48.304;11.896;2022-11-04T17:59:15;3.80;;;2.25;;
45344;SDS011;31078;48.304;11.896;2022-11-04T18:01:43;5.03;;;3.20;;
45344;SDS011;31078;48.304;11.896;2022-11-04T18:04:11;4.65;;;3.05;;
45344;SDS011;31078;48.304;11.896;2022-11-04T18:06:38;8.77;;;3.53;;
45344;SDS011;31078;48.304;11.896;2022-11-04T18:09:06;4.85;;;3.05;;
45344;SDS011;31078;48.304;11.896;2022-11-04T18:11:35;5.00;;;3.08;;
45344;SDS011;31078;48.304;11.896;2022-11-04T18:14:20;5.18;;;3.00;;
45344;SDS011;31078;48.304;11.896;2022-11-04T18:16:47;6.60;;;3.63;;
45344;SDS011;31078;48.304;11.896;2022-11-04T18:19:15;6.35;;;3.42;;
45344;SDS011;31078;48.304;11.896;2022-11-04T18:21:43;7.10;;;3.55;;
45344;SDS011;31078;48.304;11.896;2022-11-04T18:24:12;6.25;;;4.20;;
45344;SDS011;31078;48.304;11.896;2022-11-04T18:26:38;9.15;;;5.05;;
45344;SDS011;31078;48.304;11.896;2022-11-04T18:29:05;7.63;;;5.40;;
45344;SDS011;31078;48.304;11.896;2022-11-04T18:31:34;6.20;;;4.75;;
45344;SDS011;31078;48.304;11.896;2022-11-04T18:34:02;10.15;;;5.05;;
45344;SDS011;31078;48.304;11.896;2022-11-04T18:36:31;6.70;;;4.72;;
45344;SDS011;31078;48.304;11.896;2022-11-04T18:38:59;5.57;;;3.70;;
45344;SDS011;31078;48.304;11.896;2022-11-04T18:41:27;7.07;;;4.05;;
45344;SDS011;31078;48.304;11.896;2022-11-04T18:43:55;6.22;;;4.18;;
45344;SDS011;31078;48.304;11.896;2022-11-04T18:46:21;6.65;;;4.63;;
45344;SDS011;31078;48.304;11.896;2022-11-04T18:48:48;6.18;;;4.68;;
45344;SDS011;31078;48.304;11.896;2022-11-04T18:51:17;7.97;;;5.28;;
45344;SDS011;31078;48.304;11.896;2022-11-04T18:53:46;8.38;;;5.18;;
45344;SDS011;31078;48.304;11.896;2022-11-04T18:56:13;9.10;;;4.85;;
45344;SDS011;31078;48.304;11.896;2022-11-04T18:58:42;6.88;;;5.00;;
45344;SDS011;31078;48.304;11.896;2022-11-04T19:01:10;7.82;;;5.20;;
45344;SDS011;31078;48.304;11.896;2022-11-04T19:03:41;9.32;;;5.22;;
45344;SDS011;31078;48.304;11.896;2022-11-04T19:06:09;7.50;;;4.60;;
45344;SDS011;31078;48.304;11.896;2022-11-04T19:08:37;10.75;;;6.00;;
45344;SDS011;31078;48.304;11.896;2022-11-04T19:11:08;12.02;;;6.82;;
45344;SDS011;31078;48.304;11.896;2022-11-04T19:13:35;11.15;;;7.00;;
45344;SDS011;31078;48.304;11.896;2022-11-04T19:16:04;10.95;;;6.88;;
45344;SDS011;31078;48.304;11.896;2022-11-04T19:18:31;9.68;;;6.07;;
45344;SDS011;31078;48.304;11.896;2022-11-04T19:21:01;9.57;;;5.55;;
45344;SDS011;31078;48.304;11.896;2022-11-04T19:23:29;9.52;;;5.22;;
45344;SDS011;31078;48.304;11.896;2022-11-04T19:25:56;10.52;;;5.55;;
45344;SDS011;31078;48.304;11.896;2022-11-04T19:28:23;10.23;;;5.90;;
45344;SDS011;31078;48.304;11.896;2022-11-04T19:30:55;10.15;;;5.15;;
45344;SDS011;31078;48.304;11.896;2022-11-04T19:33:24;9.10;;;5.97;;
45344;SDS011;31078;48.304;11.896;2022-11-04T19:35:51;8.77;;;5.53;;
45344;SDS011;31078;48.304;11.896;2022-11-04T19:38:18;9.73;;;5.90;;
45344;SDS011;31078;48.304;11.896;2022-11-04T19:40:46;10.25;;;6.25;;
45344;SDS011;31078;48.304;11.896;2022-11-04T19:43:12;9.27;;;5.60;;
45344;SDS011;31078;48.304;11.896;2022-11-04T19:45:39;10.07;;;5.78;;
45344;SDS011;31078;48.304;11.896;2022-11-04T19:48:07;8.50;;;5.75;;
45344;SDS011;31078;48.304;11.896;2022-11-04T19:50:37;8.88;;;5.35;;
45344;SDS011;31078;48.304;11.896;2022-11-04T19:53:05;6.90;;;4.60;;
45344;SDS011;31078;48.304;11.896;2022-11-04T19:55:31;6.22;;;4.70;;
45344;SDS011;31078;48.304;11.896;2022-11-04T19:57:58;7.03;;;4.53;;
45344;SDS011;31078;48.304;11.896;2022-11-04T20:00:25;6.63;;;4.38;;
45344;SDS011;31078;48.304;11.896;2022-11-04T20:02:52;6.72;;;4.63;;
45344;SDS011;31078;48.304;11.896;2022-11-04T20:05:19;6.07;;;4.10;;
45344;SDS011;31078;48.304;11.896;2022-11-04T20:07:47;7.00;;;4.30;;
45344;SDS011;31078;48.304;11.896;2022-11-04T20:10:18;6.18;;;4.03;;
45344;SDS011;31078;48.304;11.896;2022-11-04T20:12:45;9.60;;;4.53;;
45344;SDS011;31078;48.304;11.896;2022-11-04T20:15:29;6.90;;;4.05;;
45344;SDS011;31078;48.304;11.896;2022-11-04T20:17:55;6.53;;;4.65;;
45344;SDS011;31078;48.304;11.896;2022-11-04T20:20:22;5.97;;;4.25;;
45344;SDS011;31078;48.304;11.896;2022-11-04T20:22:51;9.63;;;4.85;;
45344;SDS011;31078;48.304;11.896;2022-11-04T20:25:18;6.47;;;3.83;;
45344;SDS011;31078;48.304;11.896;2022-11-04T20:27:44;6.65;;;3.85;;
45344;SDS011;31078;48.304;11.896;2022-11-04T20:30:11;6.80;;;3.70;;
45344;SDS011;31078;48.304;11.896;2022-11-04T20:32:37;6.15;;;4.10;;
45344;SDS011;31078;48.304;11.896;2022-11-04T20:35:05;5.88;;;3.95;;
45344;SDS011;31078;48.304;11.896;2022-11-04T20:37:32;6.40;;;3.60;;
45344;SDS011;31078;48.304;11.896;2022-11-04T20:40:00;4.28;;;3.28;;
45344;SDS011;31078;48.304;11.896;2022-11-04T20:42:26;5.07;;;3.20;;
45344;SDS011;31078;48.304;11.896;2022-11-04T20:44:55;5.50;;;3.55;;
45344;SDS011;31078;48.304;11.896;2022-11-04T20:47:22;5.63;;;3.38;;
45344;SDS011;31078;48.304;11.896;2022-11-04T20:49:48;5.32;;;3.53;;
45344;SDS011;31078;48.304;11.896;2022-11-04T20:52:16;6.97;;;4.10;;
45344;SDS011;31078;48.304;11.896;2022-11-04T20:54:43;6.93;;;3.85;;
45344;SDS011;31078;48.304;11.896;2022-11-04T20:57:11;7.38;;;4.57;;
45344;SDS011;31078;48.304;11.896;2022-11-04T20:59:37;6.00;;;4.20;;
45344;SDS011;31078;48.304;11.896;2022-11-04T21:02:04;6.70;;;4.35;;
45344;SDS011;31078;48.304;11.896;2022-11-04T21:04:30;9.65;;;4.65;;
45344;SDS011;31078;48.304;11.896;2022-11-04T21:06:57;8.07;;;4.43;;
45344;SDS011;31078;48.304;11.896;2022-11-04T21:09:23;8.07;;;4.43;;
45344;SDS011;31078;48.304;11.896;2022-11-04T21:11:50;9.15;;;4.82;;
45344;SDS011;31078;48.304;11.896;2022-11-04T21:14:18;7.63;;;5.10;;
45344;SDS011;31078;48.304;11.896;2022-11-04T21:16:44;8.93;;;4.72;;
45344;SDS011;31078;48.304;11.896;2022-11-04T21:19:11;6.88;;;4.93;;
45344;SDS011;31078;48.304;11.896;2022-11-04T21:21:39;7.10;;;4.60;;
45344;SDS011;31078;48.304;11.896;2022-11-04T21:24:06;7.63;;;4.57;;
45344;SDS011;31078;48.304;11.896;2022-11-04T21:26:36;6.63;;;4.38;;
45344;SDS011;31078;48.304;11.896;2022-11-04T21:29:03;6.40;;;4.43;;
45344;SDS011;31078;48.304;11.896;2022-11-04T21:31:33;6.05;;;4.30;;
45344;SDS011;31078;48.304;11.896;2022-11-04T21:34:00;6.20;;;4.38;;
45344;SDS011;31078;48.304;11.896;2022-11-04T21:36:27;7.10;;;4.65;;
45344;SDS011;31078;48.304;11.896;2022-11-04T21:38:54;13.23;;;5.10;;
45344;SDS011;31078;48.304;11.896;2022-11-04T21:41:23;7.35;;;4.50;;
45344;SDS011;31078;48.304;11.896;2022-11-04T21:43:52;8.05;;;4.28;;
45344;SDS011;31078;48.304;11.896;2022-11-04T21:46:19;10.05;;;4.43;;
45344;SDS011;31078;48.304;11.896;2022-11-04T21:48:48;6.30;;;3.83;;
45344;SDS011;31078;48.304;11.896;2022-11-04T21:51:15;7.53;;;3.80;;
45344;SDS011;31078;48.304;11.896;2022-11-04T21:53:42;5.75;;;3.90;;
45344;SDS011;31078;48.304;11.896;2022-11-04T21:56:10;8.90;;;4.22;;
45344;SDS011;31078;48.304;11.896;2022-11-04T21:58:39;6.13;;;3.97;;
45344;SDS011;31078;48.304;11.896;2022-11-04T22:01:07;6.18;;;3.95;;
45344;SDS011;31078;48.304;11.896;2022-11-04T22:03:36;4.90;;;3.10;;
45344;SDS011;31078;48.304;11.896;2022-11-04T22:06:07;6.55;;;4.03;;
45344;SDS011;31078;48.304;11.896;2022-11-04T22:08:35;5.75;;;3.95;;
45344;SDS011;31078;48.304;11.896;2022-11-04T22:11:06;6.40;;;4.40;;
45344;SDS011;31078;48.304;11.896;2022-11-04T22:13:34;9.38;;;4.30;;
45344;SDS011;31078;48.304;11.896;2022-11-04T22:16:01;6.90;;;4.22;;
45344;SDS011;31078;48.304;11.896;2022-11-04T22:18:35;8.15;;;4.22;;
45344;SDS011;31078;48.304;11.896;2022-11-04T22:21:03;7.50;;;4.22;;
45344;SDS011;31078;48.304;11.896;2022-11-04T22:23:33;9.40;;;4.80;;
45344;SDS011;31078;48.304;11.896;2022-11-04T22:26:01;6.75;;;4.13;;
45344;SDS011;31078;48.304;11.896;2022-11-04T22:28:29;5.53;;;4.07;;
45344;SDS011;31078;48.304;11.896;2022-11-04T22:31:02;8.07;;;4.47;;
45344;SDS011;31078;48.304;11.896;2022-11-04T22:33:34;7.82;;;4.20;;
45344;SDS011;31078;48.304;11.896;2022-11-04T22:36:05;6.20;;;4.10;;
45344;SDS011;31078;48.304;11.896;2022-11-04T22:38:33;5.88;;;3.58;;
45344;SDS011;31078;48.304;11.896;2022-11-04T22:41:02;5.80;;;3.50;;
45344;SDS011;31078;48.304;11.896;2022-11-04T22:43:30;5.18;;;3.42;;
45344;SDS011;31078;48.304;11.896;2022-11-04T22:45:57;7.00;;;3.53;;
45344;SDS011;31078;48.304;11.896;2022-11-04T22:50:57;7.35;;;3.95;;
45344;SDS011;31078;48.304;11.896;2022-11-04T22:53:24;7.13;;;4.22;;
45344;SDS011;31078;48.304;11.896;2022-11-04T22:55:52;7.80;;;3.97;;
45344;SDS011;31078;48.304;11.896;2022-11-04T22:58:21;7.70;;;4.35;;
45344;SDS011;31078;48.304;11.896;2022-11-04T23:00:52;8.07;;;4.45;;
45344;SDS011;31078;48.304;11.896;2022-11-04T23:03:20;5.73;;;3.90;;
45344;SDS011;31078;48.304;11.896;2022-11-04T23:05:47;8.10;;;3.97;;
45344;SDS011;31078;48.304;11.896;2022-11-04T23:08:18;7.60;;;3.70;;
45344;SDS011;31078;48.304;11.896;2022-11-04T23:10:44;7.72;;;3.65;;
45344;SDS011;31078;48.304;11.896;2022-11-04T23:13:30;8.57;;;3.53;;
45344;SDS011;31078;48.304;11.896;2022-11-04T23:16:14;5.10;;;3.00;;
45344;SDS011;31078;48.304;11.896;2022-11-04T23:18:58;5.43;;;3.10;;
45344;SDS011;31078;48.304;11.896;2022-11-04T23:21:26;4.53;;;2.92;;
45344;SDS011;31078;48.304;11.896;2022-11-04T23:24:10;5.72;;;2.55;;
45344;SDS011;31078;48.304;11.896;2022-11-04T23:26:54;5.00;;;2.50;;
45344;SDS011;31078;48.304;11.896;2022-11-04T23:29:23;3.65;;;2.47;;
45344;SDS011;31078;48.304;11.896;2022-11-04T23:32:07;4.28;;;2.85;;
45344;SDS011;31078;48.304;11.896;2022-11-04T23:34:33;4.63;;;2.78;;
45344;SDS011;31078;48.304;11.896;2022-11-04T23:37:17;3.85;;;2.58;;
45344;SDS011;31078;48.304;11.896;2022-11-04T23:39:45;4.85;;;2.60;;
45344;SDS011;31078;48.304;11.896;2022-11-04T23:42:13;7.40;;;2.63;;
45344;SDS011;31078;48.304;11.896;2022-11-04T23:44:45;5.03;;;3.10;;
45344;SDS011;31078;48.304;11.896;2022-11-04T23:47:31;6.10;;;3.00;;
45344;SDS011;31078;48.304;11.896;2022-11-04T23:50:16;7.72;;;2.80;;
45344;SDS011;31078;48.304;11.896;2022-11-04T23:53:01;7.00;;;3.28;;
45344;SDS011;31078;48.304;11.896;2022-11-04T23:55:46;4.97;;;2.90;;
45344;SDS011;31078;48.304;11.896;2022-11-04T23:58:30;3.85;;;2.75;;
